Latest Weather Observations for Townsville

IDQ60801

Issued at 9:02 am EST Sunday 30 August 2015 (issued every 30 minutes, with the page automatically refreshed every 10 minutes)

About weather observations | Map of weather stations | Latest weather observations for QLD | Other Formats
Station Details ID: 032040 Name: TOWNSVILLE AERO Lat: -19.25 Lon: 146.77 Height: 4.34 m
Data from the previous 72 hours. | See also: Recent months at Townsville
Date/Time
EST
Temp
°C
App
Temp
°C
Dew
Point
Rel
Hum
%
Delta-T
°C
Wind Press
QNH
hPa
Press
MSL
hPa
Rain
since 9 am
mm
Dir
 
Spd
km/h
Gust
km/h
Spd
kts
Gust
kts
30/08:30am 24.4 25.5 18.0 67 4.0 SE 9 13 5 7 1017.7 1017.7 0.0
30/08:00am 23.6 25.4 18.7 74 3.1 S 7 11 4 6 1017.5 1017.5 0.0
30/07:30am 22.0 25.5 19.5 86 1.6 CALM 0 0 0 0 1017.3 1017.3 0.0
30/07:00am 20.6 23.9 19.0 90 1.0 CALM 0 0 0 0 1017.0 1017.0 0.0
30/06:30am 20.8 22.7 18.9 89 1.2 S 7 9 4 5 1016.6 1016.6 0.0
30/06:00am 21.3 23.3 19.1 87 1.4 S 7 9 4 5 1016.4 1016.4 0.0
30/05:30am 21.9 23.6 19.4 86 1.6 S 9 9 5 5 1016.0 1016.0 0.0
30/05:00am 22.0 23.8 19.5 86 1.6 S 9 13 5 7 1015.8 1015.8 0.0
30/04:30am 21.9 24.0 19.4 86 1.6 N 7 11 4 6 1015.6 1015.6 0.0
30/04:00am 21.4 24.8 19.4 88 1.3 CALM 0 0 0 0 1015.6 1015.6 0.0
30/03:30am 20.8 24.1 19.2 90 1.0 CALM 0 0 0 0 1015.5 1015.5 0.0
30/03:00am 20.5 23.8 19.1 92 0.9 CALM 0 0 0 0 1015.4 1015.4 0.0
30/02:30am 20.6 23.4 18.8 89 1.1 N 2 6 1 3 1015.7 1015.7 0.0
30/02:00am 21.7 23.7 19.2 86 1.6 N 7 9 4 5 1015.9 1015.9 0.0
30/01:30am 22.2 24.5 19.4 84 1.8 NNE 6 11 3 6 1016.0 1016.0 0.0
30/01:00am 21.4 23.9 19.0 86 1.5 NNE 4 7 2 4 1016.6 1016.6 0.0
30/12:42am 22.1 24.2 19.4 85 1.7 N 7 9 4 5 1016.6 1016.6 0.0
30/12:30am 21.3 23.2 18.9 86 1.5 NNE 7 9 4 5 1016.7 1016.7 0.0
30/12:00am 22.8 23.9 19.7 83 2.0 NNE 13 15 7 8 1016.9 1016.9 0.0
 
Date/Time
EST
Temp
°C
App
Temp
°C
Dew
Point
Rel
Hum
%
Delta-T
°C
Wind Press
QNH
hPa
Press
MSL
hPa
Rain
since 9 am
mm
Dir
 
Spd
km/h
Gust
km/h
Spd
kts
Gust
kts
29/11:30pm 23.2 24.3 19.6 80 2.3 ENE 13 17 7 9 1017.0 1017.0 0.0
29/11:00pm 23.1 24.9 19.5 80 2.3 NE 9 13 5 7 1017.1 1017.1 0.0
29/10:30pm 22.7 24.2 19.7 83 1.9 ENE 11 13 6 7 1017.3 1017.3 0.0
29/10:24pm 22.7 24.2 19.7 83 1.9 ENE 11 13 6 7 1017.3 1017.3 0.0
29/10:00pm 22.5 24.4 19.7 84 1.8 NE 9 13 5 7 1017.4 1017.4 0.0
29/09:30pm 22.5 23.5 19.4 82 2.0 NE 13 15 7 8 1017.3 1017.3 0.0
29/09:00pm 22.8 23.7 19.3 80 2.2 NE 13 17 7 9 1017.2 1017.2 0.0
29/08:30pm 22.9 23.4 19.3 80 2.3 NE 15 17 8 9 1017.2 1017.2 0.0
29/08:00pm 23.0 23.2 19.4 80 2.3 ENE 17 20 9 11 1017.1 1017.1 0.0
29/07:30pm 23.1 22.9 19.3 79 2.4 NE 19 26 10 14 1016.9 1016.9 0.0
29/07:00pm 23.1 23.4 19.7 81 2.2 ENE 17 24 9 13 1016.7 1016.7 0.0
29/06:30pm 23.2 23.2 19.8 81 2.2 ENE 19 26 10 14 1016.3 1016.3 0.0
29/06:00pm 23.4 22.4 19.7 80 2.4 ENE 24 30 13 16 1016.1 1016.1 0.0
29/05:30pm 24.1 23.2 19.8 77 2.8 ENE 24 30 13 16 1016.0 1016.0 0.0
29/05:00pm 24.8 23.5 19.0 70 3.7 ENE 24 28 13 15 1016.0 1016.0 0.0
29/04:30pm 25.6 24.3 19.0 67 4.2 ENE 24 30 13 16 1015.9 1015.9 0.0
29/04:00pm 25.6 24.3 19.0 67 4.2 ENE 24 33 13 18 1016.0 1016.0 0.0
29/03:30pm 26.4 25.1 19.1 64 4.7 NE 24 32 13 17 1016.2 1016.2 0.0
29/03:00pm 26.2 24.8 18.7 63 4.8 ENE 24 30 13 16 1016.3 1016.3 0.0
29/02:30pm 26.0 24.8 18.4 63 4.8 ENE 22 30 12 16 1016.8 1016.8 0.0
29/02:00pm 26.4 24.6 18.7 62 4.9 NE 26 32 14 17 1017.1 1017.1 0.0
29/01:30pm 26.5 25.1 17.9 59 5.4 NE 22 30 12 16 1017.7 1017.7 0.0
29/01:00pm 26.7 25.0 17.3 56 5.9 ENE 22 32 12 17 1018.2 1018.2 0.0
29/12:30pm 26.4 24.8 16.5 54 6.1 ENE 20 28 11 15 1018.5 1018.5 0.0
29/12:00pm 26.0 24.8 17.4 59 5.4 ENE 20 28 11 15 1019.0 1019.0 0.0
29/11:30am 25.8 24.5 18.2 63 4.8 ENE 22 30 12 16 1019.4 1019.4 0.0
29/11:00am 26.5 25.7 18.1 60 5.3 ENE 19 32 10 17 1019.9 1019.9 0.0
29/10:30am 26.0 24.9 17.2 58 5.5 ENE 19 28 10 15 1020.2 1020.2 0.0
29/10:00am 25.8 25.2 17.5 60 5.2 ENE 17 26 9 14 1020.3 1020.3 0.0
29/09:30am 25.8 25.6 17.5 60 5.2 SE 15 19 8 10 1020.2 1020.2 0.0
29/09:00am 24.8 24.4 18.1 66 4.2 SE 17 24 9 13 1020.1 1020.1 0.0
29/08:30am 23.8 24.8 18.6 72 3.3 SE 11 15 6 8 1020.1 1020.1 0.0
29/08:00am 22.5 23.8 18.4 77 2.6 SSE 9 11 5 6 1019.8 1019.8 0.0
29/07:30am 21.3 22.2 18.3 83 1.9 SSE 11 13 6 7 1019.4 1019.4 0.0
29/07:00am 19.1 19.9 17.3 89 1.1 SE 9 11 5 6 1019.1 1019.1 0.0
29/06:30am 20.3 21.1 18.2 88 1.3 SE 11 13 6 7 1018.7 1018.7 0.0
29/06:00am 20.5 21.0 18.4 88 1.3 SE 13 15 7 8 1018.4 1018.4 0.0
29/05:30am 20.5 21.1 18.6 89 1.2 SE 13 15 7 8 1017.9 1017.9 0.0
29/05:00am 20.6 21.2 18.7 89 1.2 SE 13 15 7 8 1017.6 1017.6 0.0
29/04:30am 20.8 21.4 18.7 88 1.3 SE 13 15 7 8 1017.6 1017.6 0.0
29/04:00am 20.7 22.1 18.6 88 1.3 SE 9 13 5 7 1017.6 1017.6 0.0
29/03:30am 21.0 22.5 18.8 87 1.4 SE 9 11 5 6 1017.7 1017.7 0.0
29/03:00am 21.1 22.6 18.9 87 1.4 SE 9 11 5 6 1017.8 1017.8 0.0
29/02:30am 21.0 22.5 18.9 88 1.3 SE 9 9 5 5 1017.9 1017.9 0.0
29/02:00am 21.2 22.7 18.8 86 1.5 SE 9 13 5 7 1018.2 1018.2 0.0
29/01:30am 21.5 23.3 18.8 84 1.7 ESE 7 9 4 5 1018.5 1018.5 0.0
29/01:00am 21.7 23.2 19.0 84 1.7 SE 9 13 5 7 1018.9 1018.9 0.0
29/12:30am 21.7 23.6 19.0 84 1.7 ESE 7 11 4 6 1019.3 1019.3 0.0
29/12:00am 22.4 23.5 18.9 80 2.2 E 11 13 6 7 1019.2 1019.2 0.0
 
Date/Time
EST
Temp
°C
App
Temp
°C
Dew
Point
Rel
Hum
%
Delta-T
°C
Wind Press
QNH
hPa
Press
MSL
hPa
Rain
since 9 am
mm
Dir
 
Spd
km/h
Gust
km/h
Spd
kts
Gust
kts
28/11:30pm 22.6 23.4 19.1 80 2.2 E 13 19 7 10 1019.3 1019.3 0.0
28/11:16pm 22.6 23.8 19.0 80 2.3 ENE 11 17 6 9 1019.2 1019.2 0.0
28/11:00pm 22.6 23.4 19.0 80 2.3 ENE 13 15 7 8 1019.3 1019.3 0.0
28/10:44pm 22.5 23.5 19.4 82 2.0 ENE 13 20 7 11 1019.2 1019.2 0.0
28/10:30pm 22.5 23.4 19.2 81 2.1 ENE 13 17 7 9 1019.1 1019.1 0.0
28/10:00pm 22.7 23.5 19.1 80 2.3 ENE 13 19 7 10 1019.3 1019.3 0.0
28/09:49pm 22.8 23.2 19.0 79 2.4 ENE 15 19 8 10 1019.4 1019.4 0.0
28/09:30pm 22.5 24.0 18.9 80 2.3 ENE 9 13 5 7 1019.4 1019.4 0.0
28/09:11pm 22.4 24.3 18.9 80 2.2 ENE 7 11 4 6 1019.3 1019.3 0.0
28/09:00pm 22.4 23.5 18.9 80 2.2 NE 11 13 6 7 1019.3 1019.3 0.0
28/08:30pm 22.6 23.7 18.8 79 2.4 NE 11 13 6 7 1019.3 1019.3 0.0
28/08:00pm 22.7 23.3 18.7 78 2.5 NE 13 15 7 8 1019.0 1019.0 0.0
28/07:30pm 22.8 23.3 18.3 76 2.8 ENE 13 15 7 8 1018.7 1018.7 0.0
28/07:00pm 23.0 22.9 18.7 77 2.7 ENE 17 20 9 11 1018.3 1018.3 0.0
28/06:30pm 23.1 22.9 18.5 75 2.9 ENE 17 22 9 12 1017.8 1017.8 0.0
28/06:00pm 23.2 22.8 18.9 77 2.7 ENE 19 22 10 12 1017.5 1017.5 0.0
28/05:30pm 23.7 22.8 19.1 75 2.9 ENE 22 28 12 15 1017.1 1017.1 0.0
28/05:00pm 24.5 23.4 18.7 70 3.7 ENE 22 30 12 16 1016.9 1016.9 0.0
28/04:30pm 25.1 23.4 19.0 69 3.9 ENE 26 32 14 17 1016.7 1016.7 0.0
28/04:00pm 24.9 23.7 19.3 71 3.6 NE 24 30 13 16 1016.7 1016.7 0.0
28/03:30pm 25.7 23.8 18.6 65 4.5 NE 26 32 14 17 1016.4 1016.4 0.0
28/03:00pm 25.4 22.9 18.1 64 4.6 ENE 28 35 15 19 1016.4 1016.4 0.0
28/02:30pm 26.0 23.4 17.9 61 5.1 ENE 28 33 15 18 1016.6 1016.6 0.0
28/02:00pm 25.9 23.4 18.0 61 5.0 ENE 28 35 15 19 1016.6 1016.6 0.0
28/01:30pm 26.0 22.7 17.9 61 5.1 ENE 32 35 17 19 1017.1 1017.1 0.0
28/01:00pm 26.2 23.6 17.8 60 5.3 NE 28 35 15 19 1017.5 1017.5 0.0
28/12:30pm 26.1 24.5 17.5 59 5.4 NE 22 30 12 16 1018.3 1018.3 0.0
28/12:00pm 25.9 24.4 17.8 61 5.1 NE 22 28 12 15 1018.7 1018.7 0.0
28/11:30am 25.6 24.3 16.7 58 5.5 NE 19 28 10 15 1019.2 1019.2 0.0
28/11:00am 25.7 24.2 16.2 55 5.8 ENE 19 24 10 13 1019.9 1019.9 0.0
28/10:30am 26.5 26.3 16.8 55 6.0 ENE 13 22 7 12 1020.1 1020.1 0.0
28/10:00am 24.9 24.8 17.0 61 4.9 SE 13 17 7 9 1020.3 1020.3 0.0
28/09:30am 24.7 24.1 16.6 60 5.0 ESE 15 19 8 10 1020.4 1020.4 0.0
28/09:00am 24.4 23.9 17.7 66 4.2 SE 17 20 9 11 1020.5 1020.5 0.0
28/08:30am 23.7 24.8 18.1 71 3.5 SE 9 15 5 8 1020.3 1020.3 0.0
28/08:00am 22.5 23.2 18.0 75 2.8 SSE 11 13 6 7 1019.9 1019.9 0.0
28/07:30am 19.9 22.6 17.8 88 1.3 CALM 0 0 0 0 1019.6 1019.6 0.0
28/07:00am 16.9 18.5 15.9 94 0.6 WSW 2 7 1 4 1019.0 1019.0 0.0
28/06:30am 17.5 17.9 16.3 93 0.7 S 9 11 5 6 1018.9 1018.9 0.0
28/06:00am 18.5 19.7 17.3 93 0.7 SW 7 9 4 5 1018.5 1018.5 0.0
28/05:30am 18.2 19.1 16.7 91 0.9 SSE 7 9 4 5 1018.3 1018.3 0.0
28/05:00am 18.4 19.3 16.7 90 1.0 S 7 9 4 5 1018.2 1018.2 0.0
28/04:30am 19.6 21.1 18.0 90 1.0 S 7 9 4 5 1018.2 1018.2 0.0
28/04:00am 20.0 21.1 18.1 89 1.2 SSE 9 9 5 5 1018.0 1018.0 0.0
28/03:30am 20.3 21.6 18.4 89 1.2 SE 9 11 5 6 1018.0 1018.0 0.0
28/03:00am 20.3 21.2 18.4 89 1.2 SE 11 13 6 7 1018.1 1018.1 0.0
28/02:30am 20.7 22.0 18.5 87 1.4 SE 9 11 5 6 1018.2 1018.2 0.0
28/02:00am 21.4 22.9 18.9 86 1.6 SSE 9 11 5 6 1018.4 1018.4 0.0
28/01:30am 21.3 22.8 18.8 86 1.6 SE 9 13 5 7 1018.6 1018.6 0.0
28/01:00am 21.2 22.7 18.8 86 1.5 SE 9 13 5 7 1018.8 1018.8 0.0
28/12:30am 21.1 22.1 18.7 86 1.5 SE 11 13 6 7 1019.1 1019.1 0.0
28/12:00am 21.2 22.2 18.6 85 1.6 SE 11 13 6 7 1019.3 1019.3 0.0
 
Date/Time
EST
Temp
°C
App
Temp
°C
Dew
Point
Rel
Hum
%
Delta-T
°C
Wind Press
QNH
hPa
Press
MSL
hPa
Rain
since 9 am
mm
Dir
 
Spd
km/h
Gust
km/h
Spd
kts
Gust
kts
27/11:30pm 21.5 22.2 18.8 84 1.7 SSE 13 15 7 8 1019.6 1019.6 0.0
27/11:00pm 21.1 22.9 18.7 86 1.5 SE 7 9 4 5 1019.6 1019.6 0.0
27/10:30pm 21.6 22.9 18.4 82 2.0 E 9 13 5 7 1019.7 1019.7 0.0
27/10:00pm 22.0 23.3 18.5 80 2.2 ESE 9 13 5 7 1019.9 1019.9 0.0
27/09:30pm 22.4 22.9 18.4 78 2.5 E 13 17 7 9 1019.8 1019.8 0.0
27/09:00pm 22.6 23.3 18.8 79 2.4 E 13 19 7 10 1019.6 1019.6 0.0
27/08:30pm 22.7 22.0 18.7 78 2.5 E 20 28 11 15 1019.5 1019.5 0.0
27/08:00pm 22.8 23.0 18.5 77 2.7 E 15 19 8 10 1019.4 1019.4 0.0
27/07:30pm 22.8 23.7 18.5 77 2.7 E 11 17 6 9 1019.2 1019.2 0.0
27/07:00pm 23.2 23.5 18.8 76 2.8 ENE 15 19 8 10 1018.8 1018.8 0.0
27/06:30pm 23.4 23.0 18.1 72 3.3 ENE 17 22 9 12 1018.4 1018.4 0.0
27/06:00pm 23.7 22.9 17.9 70 3.6 ENE 19 26 10 14 1017.9 1017.9 0.0
27/05:30pm 24.4 23.3 18.7 70 3.6 ENE 22 28 12 15 1017.6 1017.6 0.0
27/05:00pm 25.0 23.2 17.8 64 4.5 ENE 24 28 13 15 1017.5 1017.5 0.0
27/04:30pm 25.1 23.2 16.8 60 5.1 ENE 22 28 12 15 1017.2 1017.2 0.0
27/04:00pm 25.5 23.3 16.8 58 5.4 ENE 24 30 13 16 1017.2 1017.2 0.0
27/03:30pm 26.2 24.5 16.3 54 6.1 NE 20 28 11 15 1017.3 1017.3 0.0
27/03:00pm 25.8 24.1 18.2 63 4.8 ENE 24 33 13 18 1017.3 1017.3 0.0
27/02:30pm 26.6 24.6 17.3 56 5.8 ENE 24 32 13 17 1017.3 1017.3 0.0
27/02:00pm 27.3 26.1 17.6 55 6.1 ENE 20 30 11 16 1017.6 1017.6 0.0
27/01:30pm 27.3 25.7 17.4 54 6.2 ENE 22 28 12 15 1018.0 1018.0 0.0
27/01:00pm 26.7 24.6 16.1 52 6.5 NE 22 30 12 16 1018.5 1018.5 0.0
27/12:30pm 26.3 25.0 17.3 57 5.6 NE 20 30 11 16 1018.8 1018.8 0.0
27/12:00pm 26.4 25.0 16.5 54 6.1 NE 19 24 10 13 1019.0 1019.0 0.0
27/11:30am 26.2 24.6 16.1 53 6.2 ENE 19 26 10 14 1019.5 1019.5 0.0
27/11:00am 26.1 24.3 15.4 51 6.5 ENE 19 28 10 15 1019.8 1019.8 0.0
27/10:30am 26.3 24.9 15.6 51 6.5 NE 17 26 9 14 1020.2 1020.2 0.0
27/10:00am 25.5 24.6 16.9 59 5.3 ENE 17 26 9 14 1020.3 1020.3 0.0
27/09:30am 25.6 24.9 17.3 60 5.2 E 17 28 9 15 1020.2 1020.2 0.0

Other Formats:

Comma delimited format used in spreadsheet applications
http://www.bom.gov.au/fwo/IDQ60801/IDQ60801.94294.axf

JavaScript Object Notation format (JSON) in row-major order
http://www.bom.gov.au/fwo/IDQ60801/IDQ60801.94294.json